AIRPORT MAP

 RUNWAY INFORMATION

Runway 09L Runway length 12799 ft Runway width 164 ft
Runway elevation 79 ft Runway displaced threshold 1007 ft Runway heading 90
Runway 27R Runway length 12799 ft Runway width 164 ft
Runway elevation 78 ft Runway displaced threshold 0 ft Runway heading 270
Runway 09R Runway length 12001 ft Runway width 148 ft
Runway elevation 75 ft Runway displaced threshold 1013 ft Runway heading 90
Runway 27L Runway length 12001 ft Runway width 148 ft
Runway elevation 77 ft Runway displaced threshold 0 ft Runway heading 270

 AIRPORT FREQUENCIES

Type APP Name APP Frequency 119.725 MHZ
Type ATIS Name ATIS Frequency 128.075 MHZ
Type CLD Name CLNC DEL Frequency 121.975 MHZ
Type GND Name GND Frequency 121.7 MHZ
Type TWR Name TWR Frequency 118.475 MHZ

 AIRPORT NEAR NAVIGATION AIDS

Type VOR-DME Name London Frequency 113600 KHZ

 METAR AND TAF INFORMATION

METAR FOR EGLL
ADDS - METARS form results

(0835 UTC 27 May 2020)
Data provider http://aviationweather.gov/metar/data/
 
METAR text: EGLL 270820Z AUTO VRB02KT 9999 NCD 20/10 Q1036 NOSIG
Conditions at: EGLL (LONDON/HEATHROW , GB) observed 0820 UTC 27 May 2020
Temperature: 20.0°C (68°F)
Dewpoint: 10.0°C (50°F) [RH = 53%]
Pressure (altimeter): 30.59 inches Hg (1036.0 mb)
Winds: variable direction winds at 2 MPH (2 knots; 1.0 m/s)
Visibility: 6 or more miles (10+ km)
Ceiling: at least 12,000 feet AGL
Clouds: sky clear below 12,000 feet AGL
Weather: no significant weather observed at this time

METAR text: EGLL 270750Z AUTO VRB03KT 9999 NCD 19/10 Q1036 NOSIG
Conditions at: EGLL (LONDON/HEATHROW , GB) observed 0750 UTC 27 May 2020
Temperature: 19.0°C (66°F)
Dewpoint: 10.0°C (50°F) [RH = 56%]
Pressure (altimeter): 30.59 inches Hg (1036.0 mb)
Winds: variable direction winds at 3 MPH (3 knots; 1.5 m/s)
Visibility: 6 or more miles (10+ km)
Ceiling: at least 12,000 feet AGL
Clouds: sky clear below 12,000 feet AGL
Weather: no significant weather observed at this time

Forecast for: EGLL (LONDON/HEATHROW , GB)
Text: TAF EGLL 270457Z 2706/2812 06004KT 9999 FEW045
Forecast period: 0600 UTC 27 May 2020 to 1200 UTC 28 May 2020
Forecast type: FROM: standard forecast or significant change
Winds: from the ENE (60 degrees) at 5 MPH (4 knots; 2.1 m/s)
Visibility: 6 or more miles 10+ km)
Ceiling: at least 12,000 feet AGL
Clouds: few clouds at 4500 feet AGL
Weather: no significant weather forecast for this period